Time;durP1;ratioP1;P1;durP2;ratioP2;P2;SDS_P1;SDS_P2;PMS_P1;PMS_P2;Temp;Humidity;BMP_temperature;BMP_pressure;BME280_temperature;BME280_humidity;BME280_pressure;Samples;Min_cycle;Max_cycle;Signal;HPM_P1;HPM_P2
2022/10/13 00:01:33;;;;;;;;;;;;;;;7.00;46.85;101324.53;4971154;27;98106;-63
2022/10/13 00:03:59;;;;;;;;;;;;;;;6.97;47.06;101330.31;4978170;27;97910;-67
2022/10/13 00:06:25;;;;;;;;;;;;;;;6.93;47.07;101319.22;4977547;27;97812;-67
2022/10/13 00:08:52;;;;;;;;;;;;;;;6.91;47.19;101326.66;4975890;27;98070;-67
2022/10/13 00:11:26;;;;;;;;;;;;;;;6.90;47.13;101325.00;4968950;27;97954;-67
2022/10/13 00:14:01;;;;;;;;;;;;;;;6.88;47.29;101321.75;4970153;27;98313;-67
2022/10/13 00:16:29;;;;;;;;;;;;;;;6.87;47.50;101320.09;4992120;27;98359;-67
2022/10/13 00:18:55;;;;;;;;;;;;;;;6.86;47.23;101321.13;4977892;27;99242;-63
2022/10/13 00:21:24;;;;;;;;;;;;;;;6.86;47.24;101323.81;4984095;27;98527;-63
2022/10/13 00:23:51;;;;;;;;;;;;;;;6.85;47.14;101319.50;4974098;27;97938;-67
2022/10/13 00:26:17;;;;;;;;;;;;;;;6.84;47.10;101312.50;4983020;27;98346;-67
2022/10/13 00:28:43;;;;;;;;;;;;;;;6.83;47.13;101310.84;4991873;27;98398;-63
2022/10/13 00:31:19;;;;;;;;;;;;;;;6.83;47.17;101310.84;4975513;27;98145;-67
2022/10/13 00:33:45;;;;;;;;;;;;;;;6.82;47.35;101309.22;4985721;27;97859;-67
2022/10/13 00:36:12;;;;;;;;;;;;;;;6.84;47.24;101315.19;4972976;27;97839;-67
2022/10/13 00:38:38;;;;;;;;;;;;;;;6.82;47.31;101315.41;4988950;27;98798;-63
2022/10/13 00:41:05;;;;;;;;;;;;;;;6.83;47.46;101318.91;4979267;27;98209;-64
2022/10/13 00:43:49;;;;;;;;;;;;;;;6.81;47.24;101308.41;4976294;27;98919;-67
2022/10/13 00:46:15;;;;;;;;;;;;;;;6.80;47.20;101311.31;5006061;27;98409;-67
2022/10/13 00:48:41;;;;;;;;;;;;;;;6.78;47.12;101314.22;4983769;27;97977;-63
2022/10/13 00:51:08;;;;;;;;;;;;;;;6.75;47.29;101301.25;4979795;27;98510;-63
2022/10/13 00:53:35;;;;;;;;;;;;;;;6.76;47.22;101302.06;4970829;27;98845;-63
2022/10/13 00:56:01;;;;;;;;;;;;;;;6.74;47.55;101299.63;4987897;27;98108;-67
2022/10/13 00:58:31;;;;;;;;;;;;;;;6.74;47.40;101304.16;4976009;27;118154;-67
2022/10/13 01:00:57;;;;;;;;;;;;;;;6.73;47.52;101305.19;4979665;27;98312;-63
2022/10/13 01:03:24;;;;;;;;;;;;;;;6.72;47.09;101300.88;4995701;27;98238;-67
2022/10/13 01:05:50;;;;;;;;;;;;;;;6.71;47.38;101300.03;4976105;27;99279;-67
2022/10/13 01:08:16;;;;;;;;;;;;;;;6.70;47.36;101294.91;4974531;27;98039;-67
2022/10/13 01:11:07;;;;;;;;;;;;;;;6.67;47.29;101293.50;4984615;27;98013;-63
2022/10/13 01:13:58;;;;;;;;;;;;;;;6.64;47.42;101299.28;5000202;27;97938;-67
2022/10/13 01:16:33;;;;;;;;;;;;;;;6.60;47.60;101295.41;4989998;27;97911;-67
2022/10/13 01:19:20;;;;;;;;;;;;;;;6.58;47.38;101286.78;4978491;27;98390;-67
2022/10/13 01:22:26;;;;;;;;;;;;;;;6.54;47.68;101278.38;4982178;27;98181;-63
2022/10/13 01:25:18;;;;;;;;;;;;;;;6.50;47.51;101292.44;4993691;27;98255;-67
2022/10/13 01:28:03;;;;;;;;;;;;;;;6.42;47.48;101287.34;4982369;27;98212;-63
2022/10/13 01:30:34;;;;;;;;;;;;;;;6.36;47.57;101289.84;5024436;27;97855;-63
2022/10/13 01:33:33;;;;;;;;;;;;;;;6.31;47.53;101286.22;4972420;27;98084;-67
2022/10/13 01:36:03;;;;;;;;;;;;;;;6.27;47.13;101287.69;5001709;27;98312;-63
2022/10/13 01:39:06;;;;;;;;;;;;;;;6.23;47.34;101284.63;4997352;27;98363;-63
2022/10/13 01:41:40;;;;;;;;;;;;;;;6.22;47.38;101272.28;4943790;27;98385;-63
2022/10/13 01:44:26;;;;;;;;;;;;;;;6.21;47.60;101272.47;4984556;27;99890;-67
2022/10/13 01:46:52;;;;;;;;;;;;;;;6.22;47.67;101276.81;4987311;27;98119;-63
2022/10/13 01:49:19;;;;;;;;;;;;;;;6.22;47.33;101276.81;4994265;27;98181;-63
2022/10/13 01:51:45;;;;;;;;;;;;;;;6.23;47.24;101276.59;4983451;27;97927;-63
2022/10/13 01:54:11;;;;;;;;;;;;;;;6.24;47.41;101272.06;4983433;27;98089;-63
2022/10/13 01:56:38;;;;;;;;;;;;;;;6.24;47.58;101264.84;4973184;27;108827;-63
2022/10/13 01:59:13;;;;;;;;;;;;;;;6.25;47.33;101266.50;4992552;27;98194;-63
2022/10/13 02:02:14;;;;;;;;;;;;;;;6.27;47.54;101272.44;4964683;27;98139;-63
2022/10/13 02:04:52;;;;;;;;;;;;;;;6.28;47.39;101259.88;4994203;27;100043;-67
2022/10/13 02:07:42;;;;;;;;;;;;;;;6.29;47.58;101256.16;5002205;27;97854;-67
2022/10/13 02:10:32;;;;;;;;;;;;;;;6.30;47.51;101260.47;4978969;27;97943;-63
2022/10/13 02:13:02;;;;;;;;;;;;;;;6.29;47.34;101254.31;4984918;27;97935;-67
2022/10/13 02:15:32;;;;;;;;;;;;;;;6.29;47.32;101251.63;4969082;27;98350;-63
2022/10/13 02:17:59;;;;;;;;;;;;;;;6.30;47.49;101255.94;4992838;27;99072;-67
2022/10/13 02:20:25;;;;;;;;;;;;;;;6.32;47.54;101255.72;4976048;27;98312;-67
2022/10/13 02:22:55;;;;;;;;;;;;;;;6.32;47.16;101250.34;4973832;27;98113;-67
2022/10/13 02:25:21;;;;;;;;;;;;;;;6.34;47.33;101253.63;4968150;27;98052;-67
2022/10/13 02:27:47;;;;;;;;;;;;;;;6.33;47.37;101252.81;5000357;27;98240;-67
2022/10/13 02:30:25;;;;;;;;;;;;;;;6.33;47.60;101252.81;4982381;27;98136;-63
2022/10/13 02:32:51;;;;;;;;;;;;;;;6.34;47.54;101250.97;4977900;27;97946;-67
2022/10/13 02:35:17;;;;;;;;;;;;;;;6.34;47.40;101257.13;4986001;27;99855;-63
2022/10/13 02:37:44;;;;;;;;;;;;;;;6.35;47.65;101252.59;4973172;27;99366;-67
2022/10/13 02:40:10;;;;;;;;;;;;;;;6.36;47.29;101251.53;4977029;27;97954;-63
2022/10/13 02:42:38;;;;;;;;;;;;;;;6.36;47.15;101252.38;4978480;27;98560;-67
2022/10/13 02:45:04;;;;;;;;;;;;;;;6.36;47.38;101254.22;4974292;27;98282;-63
2022/10/13 02:47:30;;;;;;;;;;;;;;;6.34;47.64;101267.03;4984686;27;98471;-63
2022/10/13 02:49:56;;;;;;;;;;;;;;;6.34;47.59;101259.00;5003574;27;98021;-62
2022/10/13 02:52:22;;;;;;;;;;;;;;;6.35;47.58;101261.44;4972781;27;98185;-63
2022/10/13 02:54:48;;;;;;;;;;;;;;;6.36;47.59;101256.91;4970237;27;98048;-63
2022/10/13 02:57:14;;;;;;;;;;;;;;;6.37;47.54;101247.84;4986148;27;127787;-63
2022/10/13 02:59:40;;;;;;;;;;;;;;;6.37;47.14;101246.00;4984577;27;98092;-63
2022/10/13 03:02:06;;;;;;;;;;;;;;;6.37;47.38;101239.81;4979515;27;100114;-63
2022/10/13 03:04:33;;;;;;;;;;;;;;;6.37;47.07;101242.50;4995076;27;98451;-67
2022/10/13 03:07:01;;;;;;;;;;;;;;;6.35;47.54;101237.34;4971600;27;106880;-67
2022/10/13 03:09:28;;;;;;;;;;;;;;;6.32;47.46;101240.44;4970532;27;97932;-63
2022/10/13 03:11:54;;;;;;;;;;;;;;;6.31;47.15;101233.47;4976356;27;99702;-67
2022/10/13 03:14:20;;;;;;;;;;;;;;;6.29;47.61;101238.25;4970752;27;97826;-63
2022/10/13 03:16:46;;;;;;;;;;;;;;;6.28;47.46;101243.78;4972801;27;97899;-67
2022/10/13 03:19:13;;;;;;;;;;;;;;;6.25;47.55;101239.72;4971590;27;98292;-63
2022/10/13 03:21:39;;;;;;;;;;;;;;;6.25;47.77;101245.06;4971986;27;99849;-63
2022/10/13 03:24:05;;;;;;;;;;;;;;;6.25;47.29;101241.56;4978950;27;98302;-63
2022/10/13 03:26:34;;;;;;;;;;;;;;;6.23;47.40;101230.25;4975250;27;127070;-63
2022/10/13 03:29:00;;;;;;;;;;;;;;;6.23;47.62;101235.63;4973902;27;98159;-67
2022/10/13 03:31:27;;;;;;;;;;;;;;;6.21;47.45;101227.81;4967306;27;98497;-63
2022/10/13 03:33:53;;;;;;;;;;;;;;;6.18;47.71;101230.91;4968472;27;98178;-63
2022/10/13 03:36:19;;;;;;;;;;;;;;;6.17;47.67;101228.44;4984522;27;97800;-63
2022/10/13 03:38:45;;;;;;;;;;;;;;;6.15;47.50;101226.00;4974615;27;98255;-63
2022/10/13 03:41:14;;;;;;;;;;;;;;;6.12;47.72;101229.91;4989161;27;99393;-67
2022/10/13 03:43:40;;;;;;;;;;;;;;;6.09;47.40;101222.34;4989291;27;98013;-63
2022/10/13 03:46:06;;;;;;;;;;;;;;;6.07;47.86;101224.41;4982085;27;97796;-63
2022/10/13 03:48:34;;;;;;;;;;;;;;;6.07;47.32;101224.41;4979018;27;97938;-67
2022/10/13 03:51:04;;;;;;;;;;;;;;;6.07;47.54;101224.41;4976535;27;98628;-64
2022/10/13 03:53:30;;;;;;;;;;;;;;;6.06;47.57;101222.78;4988200;27;98512;-67
2022/10/13 03:55:57;;;;;;;;;;;;;;;6.04;47.77;101219.50;4975774;27;99206;-67
2022/10/13 03:58:23;;;;;;;;;;;;;;;6.04;47.92;101216.81;4978199;27;98029;-63
2022/10/13 04:00:50;;;;;;;;;;;;;;;6.03;47.92;101219.72;4978516;27;98169;-67
2022/10/13 04:03:16;;;;;;;;;;;;;;;6.01;47.44;101222.63;4973816;27;100189;-63
2022/10/13 04:05:42;;;;;;;;;;;;;;;5.98;47.26;101220.38;4978278;27;99627;-63
2022/10/13 04:08:08;;;;;;;;;;;;;;;5.98;47.51;101220.38;4985876;27;98356;-67
2022/10/13 04:10:35;;;;;;;;;;;;;;;5.96;47.41;101218.94;4982964;27;98108;-67
2022/10/13 04:13:01;;;;;;;;;;;;;;;5.96;47.63;101217.09;4965045;27;98228;-67
2022/10/13 04:15:27;;;;;;;;;;;;;;;5.95;47.96;101207.44;4959078;27;98088;-63
2022/10/13 04:17:52;;;;;;;;;;;;;;;5.93;47.42;101214.84;4977369;27;116304;-63
2022/10/13 04:20:18;;;;;;;;;;;;;;;5.90;47.89;101202.72;4996301;27;130403;-63
2022/10/13 04:22:45;;;;;;;;;;;;;;;5.89;47.95;101200.22;4981971;27;98265;-63
2022/10/13 04:25:11;;;;;;;;;;;;;;;5.86;47.56;101203.38;4974853;27;98003;-64
2022/10/13 04:27:38;;;;;;;;;;;;;;;5.86;47.64;101206.03;4990411;27;98525;-63
2022/10/13 04:30:08;;;;;;;;;;;;;;;5.89;47.93;101205.59;5002790;27;98711;-67
2022/10/13 04:32:40;;;;;;;;;;;;;;;5.96;47.96;101206.38;4976872;27;98011;-63
2022/10/13 04:35:07;;;;;;;;;;;;;;;6.01;48.02;101205.72;4975652;27;98151;-63
2022/10/13 04:37:33;;;;;;;;;;;;;;;6.04;47.94;101206.09;4989223;27;98681;-67
2022/10/13 04:39:59;;;;;;;;;;;;;;;6.09;47.90;101210.78;4965748;27;98260;-63
2022/10/13 04:42:26;;;;;;;;;;;;;;;6.10;47.67;101207.09;4991413;27;97981;-63
2022/10/13 04:44:52;;;;;;;;;;;;;;;6.12;47.90;101210.38;4965615;27;98068;-67
2022/10/13 04:47:18;;;;;;;;;;;;;;;6.14;47.81;101208.31;4971372;27;114049;-63
2022/10/13 04:49:44;;;;;;;;;;;;;;;6.17;47.77;101202.50;4989474;27;98167;-67
2022/10/13 04:52:11;;;;;;;;;;;;;;;6.19;47.94;101208.47;4973295;27;97985;-67
2022/10/13 04:54:37;;;;;;;;;;;;;;;6.21;47.73;101203.72;4968163;27;98468;-67
2022/10/13 04:57:03;;;;;;;;;;;;;;;6.25;47.72;101201.38;4973521;27;98791;-67
2022/10/13 04:59:30;;;;;;;;;;;;;;;6.28;48.16;101198.28;4973941;27;99876;-63
2022/10/13 05:01:57;;;;;;;;;;;;;;;6.31;47.96;101198.66;4977770;27;98047;-67
2022/10/13 05:04:23;;;;;;;;;;;;;;;6.34;48.00;101195.53;4979067;27;99032;-63
2022/10/13 05:06:49;;;;;;;;;;;;;;;6.36;48.07;101192.63;4975329;27;98202;-67
2022/10/13 05:09:15;;;;;;;;;;;;;;;6.38;47.75;101193.25;4975659;27;97915;-67
2022/10/13 05:11:41;;;;;;;;;;;;;;;6.39;47.99;101181.47;4973122;27;98386;-67
2022/10/13 05:14:07;;;;;;;;;;;;;;;6.41;47.61;101181.28;4988042;27;98005;-67
2022/10/13 05:16:33;;;;;;;;;;;;;;;6.41;47.66;101187.44;4991535;27;98096;-67
2022/10/13 05:19:00;;;;;;;;;;;;;;;6.39;47.75;101179.63;4975290;27;98134;-67
2022/10/13 05:21:28;;;;;;;;;;;;;;;6.41;48.13;101179.41;4974367;27;99040;-63
2022/10/13 05:23:55;;;;;;;;;;;;;;;6.40;47.92;101177.75;4978163;27;99405;-67
2022/10/13 05:26:22;;;;;;;;;;;;;;;6.37;47.89;101176.34;4984082;27;98042;-63
2022/10/13 05:28:48;;;;;;;;;;;;;;;6.36;47.74;101182.72;4981303;27;97897;-63
2022/10/13 05:31:19;;;;;;;;;;;;;;;6.35;48.04;101167.72;4968850;27;115198;-67
2022/10/13 05:33:45;;;;;;;;;;;;;;;6.35;47.74;101169.56;4972208;27;111532;-63
2022/10/13 05:36:13;;;;;;;;;;;;;;;6.35;47.73;101170.38;4972696;27;98139;-63
2022/10/13 05:38:40;;;;;;;;;;;;;;;6.37;47.86;101159.47;4997069;27;98178;-67
2022/10/13 05:41:08;;;;;;;;;;;;;;;6.38;47.53;101163.78;4978979;27;97792;-67
2022/10/13 05:43:34;;;;;;;;;;;;;;;6.40;48.03;101161.69;4988858;27;98175;-67
2022/10/13 05:46:01;;;;;;;;;;;;;;;6.44;47.58;101165.56;4980593;27;97874;-63
2022/10/13 05:48:27;;;;;;;;;;;;;;;6.51;47.93;101163.63;4984652;27;98127;-67
2022/10/13 05:50:54;;;;;;;;;;;;;;;6.56;47.44;101169.16;4993476;27;98073;-63
2022/10/13 05:53:21;;;;;;;;;;;;;;;6.62;47.59;101162.88;4969502;27;97871;-67
2022/10/13 05:55:47;;;;;;;;;;;;;;;6.68;47.38;101163.88;4989398;27;97951;-67
2022/10/13 05:58:13;;;;;;;;;;;;;;;6.76;47.67;101168.06;4991168;27;97865;-63
2022/10/13 06:00:41;;;;;;;;;;;;;;;6.86;47.49;101171.88;4977403;27;98138;-67
2022/10/13 06:03:13;;;;;;;;;;;;;;;6.96;47.26;101168.66;4979337;27;97922;-67
2022/10/13 06:05:41;;;;;;;;;;;;;;;7.06;47.16;101171.59;4973215;27;98045;-63
2022/10/13 06:08:08;;;;;;;;;;;;;;;7.17;47.15;101166.53;4980473;27;98145;-67
2022/10/13 06:10:36;;;;;;;;;;;;;;;7.27;47.54;101169.47;4963462;27;98020;-67
2022/10/13 06:13:02;;;;;;;;;;;;;;;7.35;47.13;101163.78;4966506;27;98330;-63
2022/10/13 06:15:28;;;;;;;;;;;;;;;7.45;47.11;101160.53;4975362;27;97929;-67
2022/10/13 06:17:54;;;;;;;;;;;;;;;7.53;47.14;101157.53;4986424;27;97985;-67
2022/10/13 06:20:20;;;;;;;;;;;;;;;7.61;47.08;101159.88;4978053;27;98840;-63
2022/10/13 06:22:48;;;;;;;;;;;;;;;7.69;46.99;101169.47;4980587;27;98362;-67
2022/10/13 06:25:15;;;;;;;;;;;;;;;7.75;47.03;101164.00;4977794;27;98286;-63
2022/10/13 06:27:41;;;;;;;;;;;;;;;7.82;46.99;101170.06;4986730;27;98493;-67
2022/10/13 06:30:08;;;;;;;;;;;;;;;7.87;47.27;101167.50;5011925;27;98210;-67
2022/10/13 06:32:34;;;;;;;;;;;;;;;7.92;47.07;101177.53;4973648;27;98229;-67
2022/10/13 06:35:00;;;;;;;;;;;;;;;7.96;47.10;101165.28;4971402;27;98206;-63
2022/10/13 06:37:26;;;;;;;;;;;;;;;8.03;46.97;101163.31;4987253;27;101567;-67
2022/10/13 06:39:52;;;;;;;;;;;;;;;8.08;46.91;101163.41;4969338;27;100013;-67
2022/10/13 06:42:18;;;;;;;;;;;;;;;8.16;47.24;101167.63;4980478;27;98000;-63
2022/10/13 06:44:44;;;;;;;;;;;;;;;8.23;46.92;101162.13;4980722;27;109040;-67
2022/10/13 06:47:10;;;;;;;;;;;;;;;8.29;47.32;101161.19;4992806;27;98116;-67
2022/10/13 06:49:37;;;;;;;;;;;;;;;8.37;46.76;101158.19;4969053;27;97988;-67
2022/10/13 06:52:03;;;;;;;;;;;;;;;8.43;46.76;101162.59;4970513;27;98156;-67
2022/10/13 06:54:29;;;;;;;;;;;;;;;8.49;47.26;101164.38;4968397;27;98046;-67
2022/10/13 06:56:56;;;;;;;;;;;;;;;8.57;47.26;101171.25;4989398;27;97873;-67
2022/10/13 06:59:22;;;;;;;;;;;;;;;8.65;47.12;101170.06;4970591;27;98290;-63
2022/10/13 07:01:49;;;;;;;;;;;;;;;8.77;46.57;101181.59;4968994;27;98094;-63
2022/10/13 07:04:15;;;;;;;;;;;;;;;8.84;46.58;101180.41;4980793;27;97966;-67
2022/10/13 07:06:41;;;;;;;;;;;;;;;8.92;46.58;101173.84;4981488;27;97903;-63
2022/10/13 07:09:07;;;;;;;;;;;;;;;9.05;46.85;101183.50;4971601;27;98165;-67
2022/10/13 07:11:33;;;;;;;;;;;;;;;9.22;46.78;101175.47;4968821;27;98041;-63
2022/10/13 07:13:59;;;;;;;;;;;;;;;9.39;46.00;101179.00;4988250;27;98209;-68
2022/10/13 07:16:25;;;;;;;;;;;;;;;9.56;46.59;101177.16;4974313;27;97990;-63
2022/10/13 07:18:51;;;;;;;;;;;;;;;9.69;45.79;101167.13;4973017;27;113337;-67
2022/10/13 07:21:18;;;;;;;;;;;;;;;9.89;46.27;101167.44;4973375;27;99857;-63
2022/10/13 07:23:44;;;;;;;;;;;;;;;10.23;46.16;101170.13;4969886;27;98225;-65
2022/10/13 07:26:11;;;;;;;;;;;;;;;10.57;45.46;101168.16;4995470;27;127920;-67
2022/10/13 07:28:37;;;;;;;;;;;;;;;10.88;45.02;101166.66;4991305;27;98146;-64
2022/10/13 07:31:12;;;;;;;;;;;;;;;11.16;44.95;101162.94;4974385;27;98140;-63
2022/10/13 07:33:40;;;;;;;;;;;;;;;11.40;45.06;101163.44;4986758;27;97979;-63
2022/10/13 07:36:07;;;;;;;;;;;;;;;11.52;45.56;101165.97;4965593;27;98275;-68
2022/10/13 07:38:34;;;;;;;;;;;;;;;11.70;45.18;101157.47;4975159;27;98146;-68
2022/10/13 07:41:04;;;;;;;;;;;;;;;11.71;45.36;101153.72;4971174;27;98149;-68
2022/10/13 07:43:31;;;;;;;;;;;;;;;11.80;45.60;101151.34;4965179;27;98062;-68
2022/10/13 07:45:58;;;;;;;;;;;;;;;11.91;45.66;101150.38;4974177;27;98337;-67
2022/10/13 07:48:26;;;;;;;;;;;;;;;12.07;45.51;101147.78;4985669;27;98682;-68
2022/10/13 07:50:53;;;;;;;;;;;;;;;12.22;45.53;101146.00;4976006;27;98515;-68
2022/10/13 07:53:19;;;;;;;;;;;;;;;12.43;45.45;101144.22;4970748;27;97871;-68
2022/10/13 07:55:46;;;;;;;;;;;;;;;12.74;45.16;101131.63;4973815;27;98058;-68
2022/10/13 07:58:12;;;;;;;;;;;;;;;13.18;44.84;101124.97;4969150;27;98244;-68
2022/10/13 08:00:39;;;;;;;;;;;;;;;13.67;44.17;101119.84;4991003;27;97956;-68
2022/10/13 08:03:06;;;;;;;;;;;;;;;14.24;43.85;101120.56;4981760;27;105132;-68
2022/10/13 08:05:33;;;;;;;;;;;;;;;14.77;43.52;101111.97;4979892;27;97932;-68
2022/10/13 08:08:00;;;;;;;;;;;;;;;15.11;43.73;101118.28;4973046;27;98242;-68
2022/10/13 08:10:28;;;;;;;;;;;;;;;15.21;44.05;101114.69;5003192;27;98282;-68
2022/10/13 08:12:55;;;;;;;;;;;;;;;15.37;44.05;101112.69;4988372;27;97905;-68
2022/10/13 08:15:21;;;;;;;;;;;;;;;15.59;43.80;101109.50;4972281;27;98284;-68
2022/10/13 08:17:49;;;;;;;;;;;;;;;15.87;43.92;101111.44;4990095;27;98389;-68
2022/10/13 08:20:16;;;;;;;;;;;;;;;16.16;43.55;101116.03;4984584;27;98104;-68
2022/10/13 08:22:42;;;;;;;;;;;;;;;16.51;43.50;101109.38;4982385;27;98014;-68
2022/10/13 08:25:09;;;;;;;;;;;;;;;16.99;43.11;101116.66;4982663;27;98164;-68
2022/10/13 08:27:35;;;;;;;;;;;;;;;17.95;42.14;101110.72;4994353;27;98233;-69
2022/10/13 08:30:01;;;;;;;;;;;;;;;18.89;41.65;101102.00;4987675;27;97919;-69
2022/10/13 08:32:27;;;;;;;;;;;;;;;19.44;41.54;101112.72;4987879;27;98163;-69
2022/10/13 08:34:53;;;;;;;;;;;;;;;20.10;41.02;101104.75;4974076;27;98287;-65
2022/10/13 08:37:20;;;;;;;;;;;;;;;20.48;41.14;101110.50;4977506;27;100107;-65
2022/10/13 08:39:47;;;;;;;;;;;;;;;21.56;40.21;101099.78;4992444;27;97805;-65
2022/10/13 08:42:17;;;;;;;;;;;;;;;21.66;40.60;101102.19;4991106;27;98287;-65
2022/10/13 08:44:56;;;;;;;;;;;;;;;22.28;40.33;101106.31;4984746;27;100713;-65
2022/10/13 08:47:40;;;;;;;;;;;;;;;24.05;38.55;101110.50;5015817;27;98711;-65
2022/10/13 08:50:13;;;;;;;;;;;;;;;24.80;38.43;101104.63;4994395;27;98136;-65
2022/10/13 08:53:02;;;;;;;;;;;;;;;27.87;35.94;101111.94;4975939;27;98095;-66
2022/10/13 08:55:39;;;;;;;;;;;;;;;31.41;33.47;101115.53;4977910;27;98706;-66
2022/10/13 08:58:32;;;;;;;;;;;;;;;33.04;33.07;101121.41;4978658;27;97927;-67
2022/10/13 09:01:14;;;;;;;;;;;;;;;34.56;32.82;101108.72;4990954;27;97997;-67
2022/10/13 09:04:03;;;;;;;;;;;;;;;33.55;35.45;101105.97;4994491;27;98137;-67
2022/10/13 09:06:44;;;;;;;;;;;;;;;35.77;33.95;101095.91;4981337;27;98155;-67
2022/10/13 09:09:11;;;;;;;;;;;;;;;37.97;32.29;101105.81;4982189;27;107915;-67
2022/10/13 09:11:38;;;;;;;;;;;;;;;38.07;32.86;101096.31;4976960;27;98812;-68
2022/10/13 09:14:06;;;;;;;;;;;;;;;39.13;32.31;101088.09;4988561;27;98156;-66
2022/10/13 09:16:42;;;;;;;;;;;;;;;40.10;31.68;101077.28;4977188;27;97859;-65
2022/10/13 09:19:18;;;;;;;;;;;;;;;39.00;33.32;101076.81;4994849;27;98560;-65
2022/10/13 09:21:44;;;;;;;;;;;;;;;37.38;35.37;101073.09;4995703;27;98326;-65
2022/10/13 09:24:15;;;;;;;;;;;;;;;39.69;33.32;101070.59;4977707;27;98314;-65
2022/10/13 09:26:42;;;;;;;;;;;;;;;41.93;31.12;101074.59;4994463;27;98607;-66
2022/10/13 09:29:10;;;;;;;;;;;;;;;42.55;30.13;101070.66;4987465;27;98060;-66
2022/10/13 09:31:37;;;;;;;;;;;;;;;42.59;30.61;101062.78;4977762;27;97954;-65
2022/10/13 09:34:17;;;;;;;;;;;;;;;42.50;30.35;101059.19;4992639;27;98031;-65
2022/10/13 09:37:02;;;;;;;;;;;;;;;39.86;33.76;101043.06;4989805;27;98237;-65
2022/10/13 09:39:28;;;;;;;;;;;;;;;38.43;36.09;101035.47;4981368;27;98051;-65
2022/10/13 09:42:21;;;;;;;;;;;;;;;40.46;33.68;101042.91;4997144;27;98302;-65
2022/10/13 09:45:08;;;;;;;;;;;;;;;40.85;33.57;101039.84;4980002;27;98018;-65
2022/10/13 09:47:35;;;;;;;;;;;;;;;43.34;31.01;101038.59;4973859;27;99735;-65
2022/10/13 09:50:16;;;;;;;;;;;;;;;44.10;30.09;101036.34;5001828;27;108262;-65
2022/10/13 09:52:45;;;;;;;;;;;;;;;43.45;30.83;101038.84;4973488;27;97911;-65
2022/10/13 09:55:39;;;;;;;;;;;;;;;44.65;29.26;101026.44;4982067;27;98132;-65
2022/10/13 09:58:11;;;;;;;;;;;;;;;45.51;28.79;101013.81;4997270;27;98325;-65
2022/10/13 10:00:38;;;;;;;;;;;;;;;45.92;28.34;101011.75;4977512;27;99760;-68
2022/10/13 10:03:28;;;;;;;;;;;;;;;46.18;28.25;101010.94;4978969;27;98301;-68
2022/10/13 10:05:55;;;;;;;;;;;;;;;45.35;29.07;101003.75;4984575;27;98036;-65
2022/10/13 10:08:37;;;;;;;;;;;;;;;44.98;29.22;101000.66;4975157;27;103074;-70
2022/10/13 10:11:10;;;;;;;;;;;;;;;46.11;27.36;101002.88;5026188;27;99047;-70
2022/10/13 10:13:36;;;;;;;;;;;;;;;46.44;27.23;101000.34;4972115;27;98010;-67
2022/10/13 10:16:15;;;;;;;;;;;;;;;45.84;27.49;100992.75;4974926;27;102204;-67
2022/10/13 10:18:47;;;;;;;;;;;;;;;42.22;30.91;100979.16;4987922;27;98685;-67
2022/10/13 10:21:49;;;;;;;;;;;;;;;41.12;31.66;100975.00;4969135;27;99427;-67
2022/10/13 10:24:19;;;;;;;;;;;;;;;38.06;34.78;100967.34;5001247;27;98034;-70
2022/10/13 10:26:51;;;;;;;;;;;;;;;37.81;34.28;100971.63;5015233;27;98056;-66
2022/10/13 10:29:31;;;;;;;;;;;;;;;37.34;34.86;100972.03;5004644;27;97933;-66
2022/10/13 10:32:12;;;;;;;;;;;;;;;36.40;35.37;100962.56;4958564;27;98040;-66
2022/10/13 10:34:56;;;;;;;;;;;;;;;35.22;36.52;100953.50;5006378;27;98125;-66
2022/10/13 10:37:34;;;;;;;;;;;;;;;34.16;37.65;100954.53;4983439;27;97953;-69
2022/10/13 10:40:21;;;;;;;;;;;;;;;33.50;37.61;100949.19;4982440;27;98438;-66
2022/10/13 10:42:51;;;;;;;;;;;;;;;32.58;38.31;100959.75;4986655;27;97925;-66
2022/10/13 10:45:22;;;;;;;;;;;;;;;31.33;39.36;100955.22;4998623;27;97889;-69
2022/10/13 10:47:50;;;;;;;;;;;;;;;30.43;39.89;100964.53;4983221;27;98022;-66
2022/10/13 10:50:17;;;;;;;;;;;;;;;29.36;40.75;100953.50;4977847;27;97897;-66
2022/10/13 10:53:01;;;;;;;;;;;;;;;28.30;41.96;100953.88;4967367;27;97837;-69
2022/10/13 10:55:51;;;;;;;;;;;;;;;27.57;42.05;100950.41;4964677;27;97899;-66
2022/10/13 10:58:27;;;;;;;;;;;;;;;27.42;41.62;100944.66;4987450;27;98297;-69
2022/10/13 11:01:02;;;;;;;;;;;;;;;26.88;41.91;100942.09;4984570;27;100095;-66
2022/10/13 11:03:40;;;;;;;;;;;;;;;26.23;42.39;100937.22;4989782;27;98320;-65
2022/10/13 11:06:25;;;;;;;;;;;;;;;26.19;41.94;100933.59;4983772;27;98015;-69
2022/10/13 11:08:54;;;;;;;;;;;;;;;25.91;42.21;100931.81;4976125;27;98013;-69
2022/10/13 11:11:22;;;;;;;;;;;;;;;25.27;42.66;100921.97;4968230;27;100597;-69
2022/10/13 11:13:59;;;;;;;;;;;;;;;24.92;42.69;100914.34;4999517;27;99453;-66
2022/10/13 11:16:29;;;;;;;;;;;;;;;25.13;42.14;100916.09;4982420;27;104386;-66
2022/10/13 11:19:21;;;;;;;;;;;;;;;25.47;41.37;100922.84;4984470;27;97765;-69
2022/10/13 11:21:57;;;;;;;;;;;;;;;25.86;40.83;100915.53;4993006;27;98172;-66
2022/10/13 11:24:36;;;;;;;;;;;;;;;26.03;40.65;100914.31;4989498;27;99874;-65
2022/10/13 11:27:11;;;;;;;;;;;;;;;25.41;41.70;100907.72;4989584;27;98150;-65
2022/10/13 11:29:45;;;;;;;;;;;;;;;24.98;41.85;100907.41;4995437;27;98094;-65
2022/10/13 11:32:26;;;;;;;;;;;;;;;24.49;42.57;100904.13;5002634;27;98626;-69
2022/10/13 11:35:01;;;;;;;;;;;;;;;24.18;42.37;100902.03;4990878;27;99678;-69
2022/10/13 11:37:59;;;;;;;;;;;;;;;24.32;42.28;100896.13;4985998;27;97945;-65
2022/10/13 11:40:35;;;;;;;;;;;;;;;24.16;42.03;100904.31;4990466;27;97964;-69
2022/10/13 11:43:08;;;;;;;;;;;;;;;23.66;42.57;100897.31;4993075;27;98408;-69
2022/10/13 11:45:47;;;;;;;;;;;;;;;23.39;42.93;100905.09;4988590;27;98188;-69
2022/10/13 11:48:23;;;;;;;;;;;;;;;23.44;42.41;100904.06;4953817;27;98244;-65
2022/10/13 11:50:55;;;;;;;;;;;;;;;23.37;42.55;100901.06;4985405;27;97973;-69
2022/10/13 11:53:27;;;;;;;;;;;;;;;23.14;42.64;100907.00;4989061;27;98334;-66
2022/10/13 11:55:54;;;;;;;;;;;;;;;23.07;42.73;100898.53;4982586;27;98360;-65
2022/10/13 11:58:29;;;;;;;;;;;;;;;23.03;42.39;100895.66;4966448;27;106575;-66
2022/10/13 12:01:03;;;;;;;;;;;;;;;23.00;42.41;100892.78;5000139;27;97949;-66
2022/10/13 12:03:31;;;;;;;;;;;;;;;22.85;42.41;100885.16;4983076;27;99966;-69
2022/10/13 12:06:03;;;;;;;;;;;;;;;22.70;42.58;100879.16;4986179;27;98138;-69
2022/10/13 12:08:33;;;;;;;;;;;;;;;22.60;42.70;100876.03;5006073;27;97927;-70
2022/10/13 12:11:01;;;;;;;;;;;;;;;22.46;42.67;100877.13;4979601;27;97999;-65
2022/10/13 12:13:31;;;;;;;;;;;;;;;22.49;42.46;100875.69;4971309;27;97993;-65
2022/10/13 12:16:08;;;;;;;;;;;;;;;22.41;42.54;100873.81;4988279;27;98134;-65
2022/10/13 12:18:37;;;;;;;;;;;;;;;22.24;42.61;100877.50;4981818;27;97883;-66
2022/10/13 12:21:15;;;;;;;;;;;;;;;22.20;42.44;100873.81;4971963;27;98021;-69
2022/10/13 12:23:41;;;;;;;;;;;;;;;21.91;43.11;100871.94;4987778;27;98409;-69
2022/10/13 12:26:11;;;;;;;;;;;;;;;21.59;43.34;100874.22;4983137;27;97981;-65
2022/10/13 12:28:54;;;;;;;;;;;;;;;21.33;43.56;100872.41;4977322;27;98873;-69
2022/10/13 12:31:26;;;;;;;;;;;;;;;21.17;43.54;100865.06;4970138;27;98095;-65
2022/10/13 12:33:55;;;;;;;;;;;;;;;21.07;43.44;100874.47;4983259;27;98058;-65
2022/10/13 12:36:29;;;;;;;;;;;;;;;21.13;43.26;100872.31;4989859;27;98181;-68
2022/10/13 12:39:00;;;;;;;;;;;;;;;21.11;43.28;100869.94;4985531;27;98045;-65
2022/10/13 12:41:29;;;;;;;;;;;;;;;21.02;43.25;100869.94;4977569;27;97848;-69
2022/10/13 12:43:55;;;;;;;;;;;;;;;20.95;43.05;100875.13;4981071;27;97978;-69
2022/10/13 12:46:38;;;;;;;;;;;;;;;20.88;43.29;100871.28;4976932;27;98052;-69
2022/10/13 12:49:14;;;;;;;;;;;;;;;20.77;43.40;100873.56;4980862;27;98162;-65
2022/10/13 12:51:41;;;;;;;;;;;;;;;20.68;43.42;100864.59;4989205;27;97782;-65
2022/10/13 12:54:17;;;;;;;;;;;;;;;20.65;43.34;100867.97;4987165;27;99468;-65
2022/10/13 12:56:44;;;;;;;;;;;;;;;20.58;43.27;100866.50;4972473;27;97978;-69
2022/10/13 12:59:18;;;;;;;;;;;;;;;20.59;43.23;100865.41;4976420;27;98175;-65